sensor_id;sensor_type;location;lat;lon;timestamp;pressure;altitude;pressure_sealevel;temperature;humidity
28701;BME280;15877;52.344;16.790;2024-03-02T00:00:44;99954.63;;;12.96;95.99
28701;BME280;15877;52.344;16.790;2024-03-02T00:03:38;99944.27;;;12.94;96.07
28701;BME280;15877;52.344;16.790;2024-03-02T00:06:11;99944.36;;;12.97;95.92
28701;BME280;15877;52.344;16.790;2024-03-02T00:08:43;99945.23;;;12.93;96.11
28701;BME280;15877;52.344;16.790;2024-03-02T00:11:16;99945.33;;;12.83;96.96
28701;BME280;15877;52.344;16.790;2024-03-02T00:13:49;99942.64;;;12.86;96.92
28701;BME280;15877;52.344;16.790;2024-03-02T00:16:24;99936.98;;;12.91;96.59
28701;BME280;15877;52.344;16.790;2024-03-02T00:19:04;99934.73;;;12.84;96.85
28701;BME280;15877;52.344;16.790;2024-03-02T00:21:38;99938.58;;;12.88;96.67
28701;BME280;15877;52.344;16.790;2024-03-02T00:24:20;99944.41;;;12.88;96.62
28701;BME280;15877;52.344;16.790;2024-03-02T00:26:53;99941.73;;;12.80;97.07
28701;BME280;15877;52.344;16.790;2024-03-02T00:29:26;99940.50;;;12.88;96.70
28701;BME280;15877;52.344;16.790;2024-03-02T00:31:59;99939.00;;;12.92;96.18
28701;BME280;15877;52.344;16.790;2024-03-02T00:34:33;99940.03;;;12.90;96.40
28701;BME280;15877;52.344;16.790;2024-03-02T00:37:06;99940.48;;;12.86;96.63
28701;BME280;15877;52.344;16.790;2024-03-02T00:39:39;99940.90;;;12.89;96.33
28701;BME280;15877;52.344;16.790;2024-03-02T00:42:13;99940.45;;;12.79;97.01
28701;BME280;15877;52.344;16.790;2024-03-02T00:44:45;99935.29;;;12.79;97.60
28701;BME280;15877;52.344;16.790;2024-03-02T00:47:18;99932.28;;;12.85;97.17
28701;BME280;15877;52.344;16.790;2024-03-02T00:49:50;99932.29;;;12.87;97.02
28701;BME280;15877;52.344;16.790;2024-03-02T00:52:23;99938.02;;;12.88;96.75
28701;BME280;15877;52.344;16.790;2024-03-02T00:54:58;99936.52;;;12.89;96.65
28701;BME280;15877;52.344;16.790;2024-03-02T00:57:33;99933.56;;;12.88;96.72
28701;BME280;15877;52.344;16.790;2024-03-02T01:00:09;99926.40;;;12.89;96.64
28701;BME280;15877;52.344;16.790;2024-03-02T01:02:46;99904.10;;;12.72;96.33
28701;BME280;15877;52.344;16.790;2024-03-02T01:05:18;99913.14;;;12.82;96.24
28701;BME280;15877;52.344;16.790;2024-03-02T01:07:51;99924.48;;;12.83;96.63
28701;BME280;15877;52.344;16.790;2024-03-02T01:10:25;99923.90;;;12.82;96.90
28701;BME280;15877;52.344;16.790;2024-03-02T01:12:57;99923.27;;;12.83;96.81
28701;BME280;15877;52.344;16.790;2024-03-02T01:15:30;99925.05;;;12.73;97.41
28701;BME280;15877;52.344;16.790;2024-03-02T01:18:02;99919.23;;;12.73;97.46
28701;BME280;15877;52.344;16.790;2024-03-02T01:20:35;99913.44;;;12.76;97.36
28701;BME280;15877;52.344;16.790;2024-03-02T01:23:07;99911.31;;;12.81;96.65
28701;BME280;15877;52.344;16.790;2024-03-02T01:25:39;99912.74;;;12.80;96.44
28701;BME280;15877;52.344;16.790;2024-03-02T01:28:11;99908.29;;;12.80;96.25
28701;BME280;15877;52.344;16.790;2024-03-02T01:30:44;99912.26;;;12.77;96.40
28701;BME280;15877;52.344;16.790;2024-03-02T01:33:16;99912.17;;;12.78;96.53
28701;BME280;15877;52.344;16.790;2024-03-02T01:35:48;99909.71;;;12.78;96.20
28701;BME280;15877;52.344;16.790;2024-03-02T01:38:20;99904.20;;;12.79;96.11
28701;BME280;15877;52.344;16.790;2024-03-02T01:40:52;99903.17;;;12.77;96.40
28701;BME280;15877;52.344;16.790;2024-03-02T01:43:26;99886.41;;;12.69;95.73
28701;BME280;15877;52.344;16.790;2024-03-02T01:45:58;99895.50;;;12.74;95.98
28701;BME280;15877;52.344;16.790;2024-03-02T01:48:31;99902.61;;;12.77;95.74
28701;BME280;15877;52.344;16.790;2024-03-02T01:51:03;99899.44;;;12.79;95.66
28701;BME280;15877;52.344;16.790;2024-03-02T01:53:37;99899.15;;;12.69;96.17
28701;BME280;15877;52.344;16.790;2024-03-02T01:56:09;99892.16;;;12.72;95.98
28701;BME280;15877;52.344;16.790;2024-03-02T01:58:42;99896.91;;;12.68;95.92
28701;BME280;15877;52.344;16.790;2024-03-02T02:01:15;99893.48;;;12.65;96.25
28701;BME280;15877;52.344;16.790;2024-03-02T02:03:48;99889.66;;;12.67;95.79
28701;BME280;15877;52.344;16.790;2024-03-02T02:06:20;99884.27;;;12.71;95.45
28701;BME280;15877;52.344;16.790;2024-03-02T02:08:52;99893.88;;;12.66;95.37
28701;BME280;15877;52.344;16.790;2024-03-02T02:11:25;99893.27;;;12.72;95.39
28701;BME280;15877;52.344;16.790;2024-03-02T02:13:57;99892.71;;;12.73;95.02
28701;BME280;15877;52.344;16.790;2024-03-02T02:16:30;99896.35;;;12.67;95.12
28701;BME280;15877;52.344;16.790;2024-03-02T02:19:02;99892.39;;;12.70;95.16
28701;BME280;15877;52.344;16.790;2024-03-02T02:21:34;99893.42;;;12.70;95.06
28701;BME280;15877;52.344;16.790;2024-03-02T02:24:07;99898.66;;;12.66;95.03
28701;BME280;15877;52.344;16.790;2024-03-02T02:26:39;99896.75;;;12.67;95.02
28701;BME280;15877;52.344;16.790;2024-03-02T02:29:11;99896.27;;;12.66;95.19
28701;BME280;15877;52.344;16.790;2024-03-02T02:31:43;99898.86;;;12.61;95.17
28701;BME280;15877;52.344;16.790;2024-03-02T02:34:16;99897.04;;;12.60;95.46
28701;BME280;15877;52.344;16.790;2024-03-02T02:36:49;99895.29;;;12.62;95.28
28701;BME280;15877;52.344;16.790;2024-03-02T02:39:22;99889.58;;;12.66;94.86
28701;BME280;15877;52.344;16.790;2024-03-02T02:41:55;99889.90;;;12.66;94.46
28701;BME280;15877;52.344;16.790;2024-03-02T02:44:27;99890.14;;;12.65;94.41
28701;BME280;15877;52.344;16.790;2024-03-02T02:46:59;99901.06;;;12.55;94.68
28701;BME280;15877;52.344;16.790;2024-03-02T02:49:32;99897.98;;;12.58;94.75
28701;BME280;15877;52.344;16.790;2024-03-02T02:52:05;99892.25;;;12.60;94.59
28701;BME280;15877;52.344;16.790;2024-03-02T02:54:38;99897.00;;;12.55;94.47
28701;BME280;15877;52.344;16.790;2024-03-02T02:57:11;99899.30;;;12.52;94.60
28701;BME280;15877;52.344;16.790;2024-03-02T02:59:43;99899.80;;;12.55;94.42
28701;BME280;15877;52.344;16.790;2024-03-02T03:02:16;99899.01;;;12.57;94.34
28701;BME280;15877;52.344;16.790;2024-03-02T03:04:48;99891.63;;;12.61;93.56
28701;BME280;15877;52.344;16.790;2024-03-02T03:07:20;99888.73;;;12.56;93.57
28701;BME280;15877;52.344;16.790;2024-03-02T03:09:53;99887.54;;;12.56;93.49
28701;BME280;15877;52.344;16.790;2024-03-02T03:12:25;99888.91;;;12.60;93.25
28701;BME280;15877;52.344;16.790;2024-03-02T03:14:57;99885.90;;;12.62;93.02
28701;BME280;15877;52.344;16.790;2024-03-02T03:17:30;99880.56;;;12.60;92.74
28701;BME280;15877;52.344;16.790;2024-03-02T03:20:03;99885.38;;;12.56;92.73
28701;BME280;15877;52.344;16.790;2024-03-02T03:22:37;99875.55;;;12.47;92.59
28701;BME280;15877;52.344;16.790;2024-03-02T03:25:09;99880.11;;;12.52;92.70
28701;BME280;15877;52.344;16.790;2024-03-02T03:27:42;99879.97;;;12.56;92.46
28701;BME280;15877;52.344;16.790;2024-03-02T03:30:15;99881.38;;;12.51;92.23
28701;BME280;15877;52.344;16.790;2024-03-02T03:32:47;99887.67;;;12.50;92.40
28701;BME280;15877;52.344;16.790;2024-03-02T03:35:20;99886.24;;;12.52;92.26
28701;BME280;15877;52.344;16.790;2024-03-02T03:37:52;99875.86;;;12.45;92.26
28701;BME280;15877;52.344;16.790;2024-03-02T03:40:24;99880.25;;;12.47;92.39
28701;BME280;15877;52.344;16.790;2024-03-02T03:42:56;99881.27;;;12.46;92.07
28701;BME280;15877;52.344;16.790;2024-03-02T03:45:30;99872.53;;;12.49;92.03
28701;BME280;15877;52.344;16.790;2024-03-02T03:48:03;99874.59;;;12.47;91.98
28701;BME280;15877;52.344;16.790;2024-03-02T03:50:35;99872.30;;;12.49;91.89
28701;BME280;15877;52.344;16.790;2024-03-02T03:53:09;99880.31;;;12.42;92.21
28701;BME280;15877;52.344;16.790;2024-03-02T03:55:41;99876.27;;;12.46;91.93
28701;BME280;15877;52.344;16.790;2024-03-02T03:58:13;99865.90;;;12.44;91.96
28701;BME280;15877;52.344;16.790;2024-03-02T04:00:45;99869.65;;;12.47;91.68
28701;BME280;15877;52.344;16.790;2024-03-02T04:03:18;99866.86;;;12.46;91.84
28701;BME280;15877;52.344;16.790;2024-03-02T04:05:52;99865.67;;;12.45;91.78
28701;BME280;15877;52.344;16.790;2024-03-02T04:08:25;99865.84;;;12.46;91.58
28701;BME280;15877;52.344;16.790;2024-03-02T04:10:58;99866.95;;;12.46;91.57
28701;BME280;15877;52.344;16.790;2024-03-02T04:13:30;99871.16;;;12.44;91.42
28701;BME280;15877;52.344;16.790;2024-03-02T04:16:02;99875.14;;;12.44;91.58
28701;BME280;15877;52.344;16.790;2024-03-02T04:18:35;99876.83;;;12.47;91.46
28701;BME280;15877;52.344;16.790;2024-03-02T04:21:08;99882.38;;;12.44;91.43
28701;BME280;15877;52.344;16.790;2024-03-02T04:23:40;99886.76;;;12.42;91.24
28701;BME280;15877;52.344;16.790;2024-03-02T04:26:12;99890.75;;;12.46;91.13
28701;BME280;15877;52.344;16.790;2024-03-02T04:28:45;99887.89;;;12.47;91.11
28701;BME280;15877;52.344;16.790;2024-03-02T04:31:18;99891.80;;;12.49;90.94
28701;BME280;15877;52.344;16.790;2024-03-02T04:33:51;99892.98;;;12.46;90.70
28701;BME280;15877;52.344;16.790;2024-03-02T04:36:23;99892.35;;;12.45;90.77
28701;BME280;15877;52.344;16.790;2024-03-02T04:38:55;99891.39;;;12.45;90.86
28701;BME280;15877;52.344;16.790;2024-03-02T04:41:27;99879.77;;;12.33;90.72
28701;BME280;15877;52.344;16.790;2024-03-02T04:43:59;99898.31;;;12.47;90.45
28701;BME280;15877;52.344;16.790;2024-03-02T04:46:32;99898.45;;;12.45;90.58
28701;BME280;15877;52.344;16.790;2024-03-02T04:49:05;99905.07;;;12.46;90.45
28701;BME280;15877;52.344;16.790;2024-03-02T04:51:37;99905.57;;;12.49;90.22
28701;BME280;15877;52.344;16.790;2024-03-02T04:54:09;99910.05;;;12.41;90.31
28701;BME280;15877;52.344;16.790;2024-03-02T04:56:41;99910.39;;;12.41;90.54
28701;BME280;15877;52.344;16.790;2024-03-02T04:59:20;99910.23;;;12.43;90.42
28701;BME280;15877;52.344;16.790;2024-03-02T05:01:52;99910.80;;;12.46;90.09
28701;BME280;15877;52.344;16.790;2024-03-02T05:04:25;99912.72;;;12.46;89.73
28701;BME280;15877;52.344;16.790;2024-03-02T05:06:57;99913.79;;;12.39;89.79
28701;BME280;15877;52.344;16.790;2024-03-02T05:09:29;99911.42;;;12.43;89.83
28701;BME280;15877;52.344;16.790;2024-03-02T05:12:01;99917.31;;;12.43;89.71
28701;BME280;15877;52.344;16.790;2024-03-02T05:15:07;99917.79;;;12.42;89.77
28701;BME280;15877;52.344;16.790;2024-03-02T05:17:39;99919.04;;;12.41;89.75
28701;BME280;15877;52.344;16.790;2024-03-02T05:20:14;99911.78;;;12.37;89.48
28701;BME280;15877;52.344;16.790;2024-03-02T05:22:46;99910.04;;;12.37;89.52
28701;BME280;15877;52.344;16.790;2024-03-02T05:25:19;99914.96;;;12.38;89.26
28701;BME280;15877;52.344;16.790;2024-03-02T05:27:52;99919.16;;;12.32;89.70
28701;BME280;15877;52.344;16.790;2024-03-02T05:30:24;99916.85;;;12.20;89.72
28701;BME280;15877;52.344;16.790;2024-03-02T05:32:57;99918.77;;;12.13;90.59
28701;BME280;15877;52.344;16.790;2024-03-02T05:35:30;99921.97;;;12.15;90.71
28701;BME280;15877;52.344;16.790;2024-03-02T05:38:07;99923.32;;;12.23;90.26
28701;BME280;15877;52.344;16.790;2024-03-02T05:40:40;99930.22;;;12.31;89.74
28701;BME280;15877;52.344;16.790;2024-03-02T05:43:13;99924.52;;;12.27;89.48
28701;BME280;15877;52.344;16.790;2024-03-02T05:45:45;99927.60;;;12.22;89.62
28701;BME280;15877;52.344;16.790;2024-03-02T05:48:18;99928.09;;;12.24;89.23
28701;BME280;15877;52.344;16.790;2024-03-02T05:50:51;99929.16;;;12.28;88.94
28701;BME280;15877;52.344;16.790;2024-03-02T05:53:24;99936.02;;;12.19;88.80
28701;BME280;15877;52.344;16.790;2024-03-02T05:55:56;99924.34;;;12.12;88.69
28701;BME280;15877;52.344;16.790;2024-03-02T05:58:29;99936.77;;;12.24;88.42
28701;BME280;15877;52.344;16.790;2024-03-02T06:01:13;99940.17;;;12.23;88.37
28701;BME280;15877;52.344;16.790;2024-03-02T06:03:46;99940.67;;;12.25;88.26
28701;BME280;15877;52.344;16.790;2024-03-02T06:06:20;99938.11;;;12.23;88.53
28701;BME280;15877;52.344;16.790;2024-03-02T06:08:53;99948.06;;;12.24;88.87
28701;BME280;15877;52.344;16.790;2024-03-02T06:11:25;99951.17;;;12.25;88.80
28701;BME280;15877;52.344;16.790;2024-03-02T06:13:58;99958.35;;;12.26;88.77
28701;BME280;15877;52.344;16.790;2024-03-02T06:16:31;99958.52;;;12.28;88.53
28701;BME280;15877;52.344;16.790;2024-03-02T06:19:05;99947.77;;;12.16;88.93
28701;BME280;15877;52.344;16.790;2024-03-02T06:21:39;99962.00;;;12.25;88.96
28701;BME280;15877;52.344;16.790;2024-03-02T06:24:11;99958.37;;;12.29;88.95
28701;BME280;15877;52.344;16.790;2024-03-02T06:26:43;99962.17;;;12.27;88.94
28701;BME280;15877;52.344;16.790;2024-03-02T06:29:15;99969.35;;;12.31;88.96
28701;BME280;15877;52.344;16.790;2024-03-02T06:31:48;99974.46;;;12.31;89.10
28701;BME280;15877;52.344;16.790;2024-03-02T06:34:25;99979.92;;;12.27;89.08
28701;BME280;15877;52.344;16.790;2024-03-02T06:36:57;99977.64;;;12.31;88.98
28701;BME280;15877;52.344;16.790;2024-03-02T06:39:30;99977.65;;;12.33;89.08
28701;BME280;15877;52.344;16.790;2024-03-02T06:42:05;99978.57;;;12.28;88.74
28701;BME280;15877;52.344;16.790;2024-03-02T06:44:38;99975.90;;;12.32;88.85
28701;BME280;15877;52.344;16.790;2024-03-02T06:47:11;99974.63;;;12.33;88.96
28701;BME280;15877;52.344;16.790;2024-03-02T06:49:43;99969.73;;;12.28;88.89
28701;BME280;15877;52.344;16.790;2024-03-02T06:52:16;99965.16;;;12.32;88.73
28701;BME280;15877;52.344;16.790;2024-03-02T06:54:49;99958.95;;;12.35;88.60
28701;BME280;15877;52.344;16.790;2024-03-02T06:57:22;99957.61;;;12.34;88.81
28701;BME280;15877;52.344;16.790;2024-03-02T06:59:55;99959.79;;;12.37;88.82
28701;BME280;15877;52.344;16.790;2024-03-02T07:02:30;99948.02;;;12.29;89.03
28701;BME280;15877;52.344;16.790;2024-03-02T07:05:03;99964.27;;;12.41;88.68
28701;BME280;15877;52.344;16.790;2024-03-02T07:07:38;99966.02;;;12.43;88.64
28701;BME280;15877;52.344;16.790;2024-03-02T07:10:10;99965.63;;;12.42;88.38
28701;BME280;15877;52.344;16.790;2024-03-02T07:12:43;99964.92;;;12.43;88.49
28701;BME280;15877;52.344;16.790;2024-03-02T07:15:15;99974.95;;;12.43;88.80
28701;BME280;15877;52.344;16.790;2024-03-02T07:18:14;99975.49;;;12.42;88.90
28701;BME280;15877;52.344;16.790;2024-03-02T07:20:46;99983.55;;;12.43;89.10
28701;BME280;15877;52.344;16.790;2024-03-02T07:23:20;99974.03;;;12.39;89.38
28701;BME280;15877;52.344;16.790;2024-03-02T07:25:55;99988.84;;;12.49;89.05
28701;BME280;15877;52.344;16.790;2024-03-02T07:28:30;99993.21;;;12.49;88.77
28701;BME280;15877;52.344;16.790;2024-03-02T07:31:04;100001.44;;;12.51;88.66
28701;BME280;15877;52.344;16.790;2024-03-02T07:33:36;99999.83;;;12.51;88.61
28701;BME280;15877;52.344;16.790;2024-03-02T07:36:09;99995.58;;;12.56;88.53
28701;BME280;15877;52.344;16.790;2024-03-02T07:38:42;99991.49;;;12.55;88.43
28701;BME280;15877;52.344;16.790;2024-03-02T07:41:16;99994.67;;;12.53;88.38
28701;BME280;15877;52.344;16.790;2024-03-02T07:43:48;99996.86;;;12.58;88.64
28701;BME280;15877;52.344;16.790;2024-03-02T07:46:20;99990.42;;;12.59;88.86
28701;BME280;15877;52.344;16.790;2024-03-02T07:48:52;99994.73;;;12.62;88.78
28701;BME280;15877;52.344;16.790;2024-03-02T07:51:25;100002.64;;;12.64;89.29
28701;BME280;15877;52.344;16.790;2024-03-02T07:53:57;100005.20;;;12.67;89.33
28701;BME280;15877;52.344;16.790;2024-03-02T07:56:29;100008.04;;;12.72;89.67
28701;BME280;15877;52.344;16.790;2024-03-02T07:59:02;100009.88;;;12.76;89.90
28701;BME280;15877;52.344;16.790;2024-03-02T08:01:35;100009.34;;;12.79;90.53
28701;BME280;15877;52.344;16.790;2024-03-02T08:04:07;100009.23;;;12.85;90.18
28701;BME280;15877;52.344;16.790;2024-03-02T08:06:40;100013.38;;;12.90;89.74
28701;BME280;15877;52.344;16.790;2024-03-02T08:09:12;100017.63;;;12.92;89.79
28701;BME280;15877;52.344;16.790;2024-03-02T08:11:44;100004.11;;;12.85;88.45
28701;BME280;15877;52.344;16.790;2024-03-02T08:14:16;100023.27;;;13.01;88.84
28701;BME280;15877;52.344;16.790;2024-03-02T08:16:49;100018.77;;;13.05;88.67
28701;BME280;15877;52.344;16.790;2024-03-02T08:19:21;100014.66;;;13.12;89.23
28701;BME280;15877;52.344;16.790;2024-03-02T08:21:53;100011.98;;;13.16;88.67
28701;BME280;15877;52.344;16.790;2024-03-02T08:24:25;100012.09;;;13.23;88.87
28701;BME280;15877;52.344;16.790;2024-03-02T08:26:57;100009.96;;;13.31;88.78
28701;BME280;15877;52.344;16.790;2024-03-02T08:29:30;100008.05;;;13.31;87.28
28701;BME280;15877;52.344;16.790;2024-03-02T08:32:02;100009.60;;;13.38;87.54
28701;BME280;15877;52.344;16.790;2024-03-02T08:34:35;100015.61;;;13.50;86.83
28701;BME280;15877;52.344;16.790;2024-03-02T08:37:07;100023.08;;;13.41;86.30
28701;BME280;15877;52.344;16.790;2024-03-02T08:39:39;100021.20;;;13.50;86.53
28701;BME280;15877;52.344;16.790;2024-03-02T08:42:12;100021.29;;;13.54;85.95
28701;BME280;15877;52.344;16.790;2024-03-02T08:44:45;100016.42;;;13.53;85.50
28701;BME280;15877;52.344;16.790;2024-03-02T08:47:17;100015.59;;;13.42;85.31
28701;BME280;15877;52.344;16.790;2024-03-02T08:49:50;100016.48;;;13.51;85.66
28701;BME280;15877;52.344;16.790;2024-03-02T08:52:22;100017.45;;;13.52;85.56
28701;BME280;15877;52.344;16.790;2024-03-02T08:54:54;100022.83;;;13.62;85.41
28701;BME280;15877;52.344;16.790;2024-03-02T08:57:26;100021.09;;;13.66;85.00
28701;BME280;15877;52.344;16.790;2024-03-02T08:59:59;100027.34;;;13.76;85.08
28701;BME280;15877;52.344;16.790;2024-03-02T09:02:31;100023.37;;;13.83;84.81
28701;BME280;15877;52.344;16.790;2024-03-02T09:05:04;100023.08;;;13.93;84.35
28701;BME280;15877;52.344;16.790;2024-03-02T09:07:37;100014.94;;;13.98;84.30
28701;BME280;15877;52.344;16.790;2024-03-02T09:10:11;100015.34;;;14.01;83.02
28701;BME280;15877;52.344;16.790;2024-03-02T09:12:44;100014.64;;;14.06;83.06
28701;BME280;15877;52.344;16.790;2024-03-02T09:15:17;100020.15;;;14.09;83.52
28701;BME280;15877;52.344;16.790;2024-03-02T09:17:49;100018.55;;;14.20;83.97
28701;BME280;15877;52.344;16.790;2024-03-02T09:20:21;100018.18;;;14.26;82.86
28701;BME280;15877;52.344;16.790;2024-03-02T09:22:54;100024.90;;;14.32;82.79
28701;BME280;15877;52.344;16.790;2024-03-02T09:25:26;100025.54;;;14.38;82.99
28701;BME280;15877;52.344;16.790;2024-03-02T09:27:58;100022.81;;;14.45;81.91
28701;BME280;15877;52.344;16.790;2024-03-02T09:30:31;100024.33;;;14.50;82.34
28701;BME280;15877;52.344;16.790;2024-03-02T09:33:04;100018.81;;;14.65;84.99
28701;BME280;15877;52.344;16.790;2024-03-02T09:35:39;100022.08;;;14.70;82.74
28701;BME280;15877;52.344;16.790;2024-03-02T09:38:11;100023.90;;;14.85;85.15
28701;BME280;15877;52.344;16.790;2024-03-02T09:40:44;100020.77;;;14.92;84.31
28701;BME280;15877;52.344;16.790;2024-03-02T09:43:17;100021.39;;;14.99;83.67
28701;BME280;15877;52.344;16.790;2024-03-02T09:45:50;100018.57;;;15.09;83.04
28701;BME280;15877;52.344;16.790;2024-03-02T09:48:23;100019.40;;;15.22;81.87
28701;BME280;15877;52.344;16.790;2024-03-02T09:50:55;100019.05;;;15.31;80.52
28701;BME280;15877;52.344;16.790;2024-03-02T09:53:32;100015.05;;;15.36;78.84
28701;BME280;15877;52.344;16.790;2024-03-02T09:56:06;100014.70;;;15.47;79.79
28701;BME280;15877;52.344;16.790;2024-03-02T09:58:39;100014.45;;;15.66;82.92
28701;BME280;15877;52.344;16.790;2024-03-02T10:01:12;100019.90;;;15.78;82.75
28701;BME280;15877;52.344;16.790;2024-03-02T10:03:45;100024.86;;;15.79;78.88
28701;BME280;15877;52.344;16.790;2024-03-02T10:06:23;100038.11;;;15.83;78.00
28701;BME280;15877;52.344;16.790;2024-03-02T10:08:57;100041.13;;;15.88;79.49
28701;BME280;15877;52.344;16.790;2024-03-02T10:11:30;100034.02;;;15.87;79.90
28701;BME280;15877;52.344;16.790;2024-03-02T10:14:08;100038.48;;;16.02;81.90
28701;BME280;15877;52.344;16.790;2024-03-02T10:16:42;100035.92;;;16.74;84.96
28701;BME280;15877;52.344;16.790;2024-03-02T10:19:19;100034.02;;;16.83;80.35
28701;BME280;15877;52.344;16.790;2024-03-02T10:21:53;100024.52;;;16.86;78.34
28701;BME280;15877;52.344;16.790;2024-03-02T10:24:26;100034.35;;;16.98;75.38
28701;BME280;15877;52.344;16.790;2024-03-02T10:26:58;100031.20;;;17.13;75.42
28701;BME280;15877;52.344;16.790;2024-03-02T10:29:32;100027.11;;;17.15;74.35
28701;BME280;15877;52.344;16.790;2024-03-02T10:32:05;100024.30;;;17.29;73.22
28701;BME280;15877;52.344;16.790;2024-03-02T10:34:39;100021.94;;;17.37;71.04
28701;BME280;15877;52.344;16.790;2024-03-02T10:37:12;100019.77;;;17.47;71.65
28701;BME280;15877;52.344;16.790;2024-03-02T10:39:47;100019.54;;;17.59;70.37
28701;BME280;15877;52.344;16.790;2024-03-02T10:42:21;100015.64;;;17.43;68.85
28701;BME280;15877;52.344;16.790;2024-03-02T10:44:55;100017.70;;;17.31;68.62
28701;BME280;15877;52.344;16.790;2024-03-02T10:47:28;100015.23;;;17.29;69.56
28701;BME280;15877;52.344;16.790;2024-03-02T10:50:02;100012.04;;;17.42;69.83
28701;BME280;15877;52.344;16.790;2024-03-02T10:52:40;100011.23;;;17.55;70.30
28701;BME280;15877;52.344;16.790;2024-03-02T10:55:13;100008.65;;;17.58;70.41
28701;BME280;15877;52.344;16.790;2024-03-02T10:57:52;100008.52;;;17.47;69.64
28701;BME280;15877;52.344;16.790;2024-03-02T11:00:26;100011.41;;;17.49;69.73
28701;BME280;15877;52.344;16.790;2024-03-02T11:03:06;99995.13;;;17.33;69.47
28701;BME280;15877;52.344;16.790;2024-03-02T11:05:43;100011.85;;;17.52;70.74
28701;BME280;15877;52.344;16.790;2024-03-02T11:08:19;100006.90;;;17.62;70.36
28701;BME280;15877;52.344;16.790;2024-03-02T11:10:58;100004.98;;;17.73;69.97
28701;BME280;15877;52.344;16.790;2024-03-02T11:13:35;100005.10;;;17.76;70.16
28701;BME280;15877;52.344;16.790;2024-03-02T11:16:20;100005.96;;;17.72;69.59
28701;BME280;15877;52.344;16.790;2024-03-02T11:18:54;100003.15;;;17.66;69.43
28701;BME280;15877;52.344;16.790;2024-03-02T11:21:27;100000.34;;;17.66;68.58
28701;BME280;15877;52.344;16.790;2024-03-02T11:24:00;100001.87;;;17.72;68.57
28701;BME280;15877;52.344;16.790;2024-03-02T11:26:39;99998.89;;;17.78;68.86
28701;BME280;15877;52.344;16.790;2024-03-02T11:32:26;99999.77;;;17.90;69.20
28701;BME280;15877;52.344;16.790;2024-03-02T11:34:59;99996.20;;;17.92;67.97
28701;BME280;15877;52.344;16.790;2024-03-02T11:37:31;100006.21;;;17.65;66.44
28701;BME280;15877;52.344;16.790;2024-03-02T11:40:04;99999.01;;;17.38;67.62
28701;BME280;15877;52.344;16.790;2024-03-02T11:42:37;100003.61;;;17.41;68.14
28701;BME280;15877;52.344;16.790;2024-03-02T11:45:11;99997.45;;;17.48;69.88
28701;BME280;15877;52.344;16.790;2024-03-02T11:47:47;100001.35;;;17.43;68.86
28701;BME280;15877;52.344;16.790;2024-03-02T11:50:33;99997.96;;;17.37;69.36
28701;BME280;15877;52.344;16.790;2024-03-02T11:53:07;100000.60;;;17.38;69.03
28701;BME280;15877;52.344;16.790;2024-03-02T11:55:42;99999.66;;;17.36;68.23
28701;BME280;15877;52.344;16.790;2024-03-02T11:58:20;99988.00;;;17.33;68.71
28701;BME280;15877;52.344;16.790;2024-03-02T12:00:55;100001.02;;;17.52;68.39
28701;BME280;15877;52.344;16.790;2024-03-02T12:03:28;99997.12;;;17.55;68.50
28701;BME280;15877;52.344;16.790;2024-03-02T12:06:01;99996.98;;;17.59;67.64
28701;BME280;15877;52.344;16.790;2024-03-02T12:08:36;99995.27;;;17.78;68.09
28701;BME280;15877;52.344;16.790;2024-03-02T12:11:08;99993.65;;;17.80;66.78
28701;BME280;15877;52.344;16.790;2024-03-02T12:13:56;99995.39;;;17.87;67.30
28701;BME280;15877;52.344;16.790;2024-03-02T12:16:30;99997.92;;;18.05;66.39
28701;BME280;15877;52.344;16.790;2024-03-02T12:19:04;99995.70;;;17.99;65.82
28701;BME280;15877;52.344;16.790;2024-03-02T12:21:37;99993.48;;;17.92;66.09
28701;BME280;15877;52.344;16.790;2024-03-02T12:24:10;99975.30;;;17.99;66.42
28701;BME280;15877;52.344;16.790;2024-03-02T12:26:43;99990.18;;;18.08;65.56
28701;BME280;15877;52.344;16.790;2024-03-02T12:29:17;99993.31;;;18.07;65.42
28701;BME280;15877;52.344;16.790;2024-03-02T12:31:51;99995.23;;;18.08;64.54
28701;BME280;15877;52.344;16.790;2024-03-02T12:34:24;99992.46;;;18.10;65.25
28701;BME280;15877;52.344;16.790;2024-03-02T12:36:58;99991.02;;;18.11;65.56
28701;BME280;15877;52.344;16.790;2024-03-02T12:39:30;99996.05;;;18.07;64.51
28701;BME280;15877;52.344;16.790;2024-03-02T12:42:05;99992.77;;;17.91;64.05
28701;BME280;15877;52.344;16.790;2024-03-02T12:44:37;99989.23;;;17.91;64.62
28701;BME280;15877;52.344;16.790;2024-03-02T12:47:09;99988.16;;;17.92;64.78
28701;BME280;15877;52.344;16.790;2024-03-02T12:49:44;99987.88;;;17.84;64.51
28701;BME280;15877;52.344;16.790;2024-03-02T12:52:16;99992.58;;;17.87;64.06
28701;BME280;15877;52.344;16.790;2024-03-02T12:54:50;99992.27;;;17.92;63.36
28701;BME280;15877;52.344;16.790;2024-03-02T12:57:26;99989.04;;;17.93;64.13
28701;BME280;15877;52.344;16.790;2024-03-02T13:00:03;99995.40;;;18.03;63.82
28701;BME280;15877;52.344;16.790;2024-03-02T13:02:42;99992.98;;;17.93;63.57
28701;BME280;15877;52.344;16.790;2024-03-02T13:05:14;99986.27;;;17.78;63.22
28701;BME280;15877;52.344;16.790;2024-03-02T13:07:48;99992.91;;;17.70;63.77
28701;BME280;15877;52.344;16.790;2024-03-02T13:10:22;99995.34;;;17.62;64.59
28701;BME280;15877;52.344;16.790;2024-03-02T13:12:54;99990.08;;;17.47;64.28
28701;BME280;15877;52.344;16.790;2024-03-02T13:15:28;99987.61;;;17.44;64.87
28701;BME280;15877;52.344;16.790;2024-03-02T13:18:01;99988.89;;;17.38;65.40
28701;BME280;15877;52.344;16.790;2024-03-02T13:20:35;99982.14;;;17.20;65.46
28701;BME280;15877;52.344;16.790;2024-03-02T13:23:08;99988.61;;;17.15;65.85